Home > Products > Valid Products > TAF

000
FTUS44 KBRO 291300 AAB
TAFMFE
TAF AMD
KMFE 291357Z 2914/3012 VRB03KT P6SM SCT010
     FM291500 16010KT P6SM FEW035
     FM291900 14012KT P6SM FEW060
     FM292200 13015G22KT P6SM FEW070
     FM300300 15008KT P6SM SKC=



000
FTUS44 KBRO 291300 AAA
TAFMFE
TAF AMD
KMFE 291308Z 2913/3012 VRB03KT P6SM SCT009 BKN015
     FM291500 16010KT P6SM FEW035
     FM291900 14012KT P6SM FEW060
     FM292200 13015G22KT P6SM FEW070
     FM300300 15008KT P6SM SKC=



000
FTUS44 KBRO 291100
TAFHRL
TAF
KHRL 291133Z 2912/3012 VRB03KT P6SM SKC
      TEMPO 2912/2914 5SM BR
     FM291400 16009KT P6SM FEW035
     FM291800 14013G19KT P6SM FEW060
     FM300300 13007KT P6SM SKC=



000
FTUS44 KBRO 291100
TAFBRO
TAF
KBRO 291133Z 2912/3012 15004KT P6SM SKC
     FM291400 16009KT P6SM FEW030
     FM291800 14012G18KT P6SM FEW050
     FM292100 13014G21KT P6SM SKC
     FM300300 13007KT P6SM SKC=



000
FTUS44 KBRO 291100
TAFMFE
TAF
KMFE 291133Z 2912/3012 15004KT P6SM SKC
     FM291500 16010KT P6SM FEW035
     FM291900 14012KT P6SM FEW060
     FM292200 13015G22KT P6SM FEW070
     FM300300 15008KT P6SM SKC=



000
FTUS44 KBRO 290700 RRA
TAFHRL
TAF
KHRL 290712Z 2907/3006 12005KT P6SM SKC
     FM290900 VRB03KT P6SM FEW015
     FM291400 16009KT P6SM FEW035
     FM291800 14013G19KT P6SM FEW060
     FM300300 13007KT P6SM SKC=



000
FTUS44 KBRO 290500
TAFBRO
TAF
KBRO 290540Z 2906/3006 12005KT P6SM SKC
     FM290900 VRB03KT P6SM FEW015
     FM291400 16009KT P6SM FEW035
     FM291800 14013G19KT P6SM FEW060
     FM300300 13007KT P6SM SKC=



000
FTUS44 KBRO 290500
TAFMFE
TAF
KMFE 290540Z 2906/3006 13008KT P6SM SKC
     FM290900 16004KT P6SM SCT015
     FM291500 16010KT P6SM FEW035
     FM291900 14012KT P6SM FEW060
     FM292200 13014G21KT P6SM FEW070
     FM300300 15008KT P6SM SKC=



000
FTUS44 KBRO 290300 AAA
TAFBRO
TAF AMD
KBRO 290312Z 2903/2924 11004KT P6SM SKC
     FM290700 16004KT P6SM FEW015
     FM291400 18008KT P6SM FEW035
     FM292100 14014KT P6SM SCT040=



000
FTUS44 KBRO 290300 AAA
TAFMFE
TAF AMD
KMFE 290312Z 2903/2924 12011KT P6SM SKC
     FM290700 16004KT P6SM SCT015
      TEMPO 2910/2913 BKN013
     FM291500 18010KT P6SM FEW035
     FM292100 14014KT P6SM SCT040=



000
FTUS44 KBRO 282300
TAFHRL
TAF
KHRL 282321Z 2900/2924 16015G21KT P6SM SKC
     FM290200 15009G15KT P6SM SKC
     FM290700 16004KT P6SM FEW015
     FM291500 18010KT P6SM FEW035
     FM292100 14014KT P6SM SCT040=



000
FTUS44 KBRO 282300
TAFBRO
TAF
KBRO 282321Z 2900/2924 16016G22KT P6SM SKC
     FM290200 15009G15KT P6SM SKC
     FM290700 16004KT P6SM FEW015
     FM291400 18008KT P6SM FEW035
     FM292100 14014KT P6SM SCT040=



000
FTUS44 KBRO 282300
TAFMFE
TAF
KMFE 282321Z 2900/2924 13016G22KT P6SM FEW070
     FM290200 15009G15KT P6SM SKC
     FM290700 16004KT P6SM SCT015
      TEMPO 2910/2913 BKN013
     FM291500 18010KT P6SM FEW035
     FM292100 14014KT P6SM SCT040=



000
FTUS44 KBRO 282100 AAA
TAFHRL
TAF AMD
KHRL 282125Z 2821/2918 13015G22KT P6SM FEW060
     FM290200 14007KT P6SM SKC
     FM290700 17005KT P6SM FEW015
     FM291500 17012KT P6SM FEW035=



000
FTUS44 KBRO 281700
TAFHRL
TAF
KHRL 281728Z 2818/2918 16013G18KT P6SM SCT040
     FM290200 14007KT P6SM SKC
     FM290700 17005KT P6SM FEW015
     FM291500 17012KT P6SM FEW035=



000
FTUS44 KBRO 281700
TAFBRO
TAF
KBRO 281728Z 2818/2918 16013G18KT P6SM SCT040
     FM290100 13008KT P6SM SKC
     FM290700 16005KT P6SM FEW015
     FM291400 17012KT P6SM FEW035=



000
FTUS44 KBRO 281700
TAFMFE
TAF
KMFE 281728Z 2818/2918 14012G18KT P6SM FEW050
     FM290200 14013KT P6SM SKC
     FM290600 13008KT P6SM SCT015
     FM291500 16012KT P6SM SCT040=



000
FTUS44 KBRO 281400 AAA
TAFMFE
TAF AMD
KMFE 281404Z 2814/2912 15012G18KT P6SM FEW030
      TEMPO 2814/2816 BKN015
     FM282200 13014G20KT P6SM SKC=



000
FTUS44 KBRO 281100
TAFHRL
TAF
KHRL 281120Z 2812/2912 VRB04KT P6SM FEW015
     FM281400 17013G18KT P6SM FEW030
     FM282000 14015G21KT P6SM SKC
     FM290200 14007KT P6SM SKC=



000
FTUS44 KBRO 281100
TAFBRO
TAF
KBRO 281120Z 2812/2912 VRB04KT P6SM FEW015
     FM281400 16013G18KT P6SM FEW030
     FM281900 13015G21KT P6SM SKC
     FM290200 13008KT P6SM SKC=



000
FTUS44 KBRO 281100
TAFMFE
TAF
KMFE 281120Z 2812/2912 14008KT P6SM FEW015
      TEMPO 2812/2814 BKN015
     FM281400 15012G18KT P6SM FEW030
     FM282200 13014G20KT P6SM SKC=



000
FTUS44 KBRO 280500
TAFBRO
TAF
KBRO 280525Z 2806/2906 14008KT P6SM SKC
     FM281400 16013G18KT P6SM FEW030
     FM281900 13015G21KT P6SM SKC
     FM290200 13008KT P6SM SKC=



000
FTUS44 KBRO 280500
TAFHRL
TAF
KHRL 280525Z 2806/2906 14016KT P6SM SKC
     FM281400 17013G18KT P6SM FEW030
     FM282000 14015G21KT P6SM SKC
     FM290200 14007KT P6SM SKC=



000
FTUS44 KBRO 280500
TAFMFE
TAF
KMFE 280525Z 2806/2906 14008KT P6SM SCT020
      TEMPO 2806/2810 BKN020
     FM281400 15012G18KT P6SM FEW030
     FM282200 13014G20KT P6SM SKC=



000
FTUS44 KBRO 280100 AAA
TAFBRO
TAF AMD
KBRO 280102Z 2801/2824 14012KT P6SM SKC
     FM281400 16012KT P6SM SCT030=



000
FTUS44 KBRO 280100 AAA
TAFHRL
TAF AMD
KHRL 280102Z 2801/2824 14016KT P6SM SKC
     FM281400 17012KT P6SM SCT030=



000
FTUS44 KBRO 272300
TAFHRL
TAF
KHRL 272320Z 2800/2824 17018KT P6SM SKC
     FM280300 15009G16KT P6SM SKC
     FM281400 17012KT P6SM SCT030=



000
FTUS44 KBRO 272300
TAFMFE
TAF
KMFE 272320Z 2800/2824 13016G23KT P6SM SKC
     FM280500 14008KT P6SM SKC
     FM281400 15012KT P6SM SCT030=



000
FTUS44 KBRO 272300
TAFBRO
TAF
KBRO 272320Z 2800/2824 15017G24KT P6SM SKC
     FM280300 15008G15KT P6SM SKC
     FM281400 16012KT P6SM SCT030=



000
FTUS44 KBRO 271700
TAFMFE
TAF
KMFE 271727Z 2718/2818 15018G25KT P6SM FEW045
     FM280300 14012KT P6SM SKC
     FM280500 15007KT P6SM SKC
     FM281400 14012G18KT P6SM SCT030=



000
FTUS44 KBRO 271700
TAFBRO
TAF
KBRO 271727Z 2718/2818 15017G25KT P6SM FEW045
     FM280100 15012G18KT P6SM SKC
     FM280300 15007KT P6SM SKC
     FM281400 15013G18KT P6SM SCT030=



000
FTUS44 KBRO 271700
TAFHRL
TAF
KHRL 271727Z 2718/2818 16018G30KT P6SM SCT045
     FM280100 14012G18KT P6SM SKC
     FM280300 15008KT P6SM SKC
     FM281400 16012G18KT P6SM SCT030=



000
FTUS44 KBRO 271100
TAFHRL
TAF
KHRL 271123Z 2712/2812 15009KT P6SM SKC
      TEMPO 2712/2714 4SM BR
     FM271400 17018G25KT P6SM FEW040
     FM280200 14012G18KT P6SM SKC=



000
FTUS44 KBRO 271100
TAFMFE
TAF
KMFE 271123Z 2712/2812 15012KT P6SM SKC
     FM271500 15017G23KT P6SM SKC
     FM280300 14012KT P6SM SKC=



000
FTUS44 KBRO 271100
TAFBRO
TAF
KBRO 271123Z 2712/2812 15009KT P6SM SKC
     FM271400 16017G23KT P6SM FEW040
     FM280200 14012G18KT P6SM SKC=



000
FTUS44 KBRO 270500
TAFHRL
TAF
KHRL 270527Z 2706/2806 15009KT P6SM SKC
     FM271400 17018G25KT P6SM FEW040
     FM280200 14012G18KT P6SM SKC=



000
FTUS44 KBRO 270500
TAFBRO
TAF
KBRO 270527Z 2706/2806 15009KT P6SM SKC
     FM271400 16017G23KT P6SM FEW040
     FM280200 14012G18KT P6SM SKC=



000
FTUS44 KBRO 270500
TAFMFE
TAF
KMFE 270527Z 2706/2806 15012KT P6SM SKC
     FM271500 15017G23KT P6SM SKC
     FM280300 14012KT P6SM SKC=



000
FTUS44 KBRO 270200 AAA
TAFHRL
TAF AMD
KHRL 270235Z 2703/2724 15015KT P6SM SKC
     FM270900 15008G14KT P6SM FEW040
     FM271500 17018KT P6SM FEW040=



000
FTUS44 KBRO 270200 AAA
TAFBRO
TAF AMD
KBRO 270234Z 2703/2724 16012KT P6SM SKC
     FM270900 15008G14KT P6SM SCT020
     FM271500 16017G23KT P6SM FEW040=



000
FTUS44 KBRO 262300
TAFHRL
TAF
KHRL 262320Z 2700/2724 17016G27KT P6SM SKC
     FM270900 15008G14KT P6SM FEW040
     FM271500 17018KT P6SM FEW040=



000
FTUS44 KBRO 262300
TAFBRO
TAF
KBRO 262320Z 2700/2724 14019G26KT P6SM SKC
     FM270900 15008G14KT P6SM SCT020
     FM271500 16017G23KT P6SM FEW040=



000
FTUS44 KBRO 262300
TAFMFE
TAF
KMFE 262320Z 2700/2724 15018G27KT P6SM SKC
     FM270400 15012KT P6SM SKC
     FM271500 15017G23KT P6SM FEW040=



000
FTUS44 KBRO 261700
TAFMFE
TAF
KMFE 261720Z 2618/2718 16015G25KT P6SM FEW040
     FM270400 14012KT P6SM SKC
     FM271500 15014G24KT P6SM FEW040=



000
FTUS44 KBRO 261700
TAFHRL
TAF
KHRL 261720Z 2618/2718 17018G25KT P6SM FEW035
     FM270100 14012KT P6SM SKC
     FM270900 15007KT P6SM FEW040
     FM271500 15016G26KT P6SM FEW040=



000
FTUS44 KBRO 261700
TAFBRO
TAF
KBRO 261720Z 2618/2718 15017G25KT P6SM FEW040
     FM270000 14012KT P6SM SKC
     FM270900 15005KT P6SM SCT020
     FM271500 15016G26KT P6SM FEW040=



    US Dept of Commerce
    National Oceanic and Atmospheric Administration
    National Weather Service
    1325 East West Highway
    Silver Spring, MD 20910
    Page Author: NWS Internet Services Team
Disclaimer
Information Quality
Credits
Glossary
Privacy Policy
Freedom of Information Act (FOIA)
About Us
Career Opportunities